Time;durP1;ratioP1;P1;durP2;ratioP2;P2;SDS_P1;SDS_P2;PMS_P1;PMS_P2;Temp;Humidity;BMP_temperature;BMP_pressure;BME280_temperature;BME280_humidity;BME280_pressure;Samples;Min_cycle;Max_cycle;Signal;HPM_P1;HPM_P2
2023/08/27 00:01:13;;;;;;;46.63;42.85;;;18.60;99.90;;;;;;5063419;28;20148;-63
2023/08/27 00:03:38;;;;;;;45.95;42.25;;;19.10;99.90;;;;;;5063316;28;20049;-62
2023/08/27 00:06:04;;;;;;;46.47;42.45;;;18.00;99.90;;;;;;5051572;28;20037;-62
2023/08/27 00:08:30;;;;;;;44.63;41.08;;;17.70;99.90;;;;;;5050821;28;20105;-61
2023/08/27 00:10:59;;;;;;;44.22;40.45;;;19.10;99.90;;;;;;5046751;28;20024;-62
2023/08/27 00:13:25;;;;;;;42.65;39.25;;;18.60;99.90;;;;;;5053291;28;20033;-61
2023/08/27 00:15:51;;;;;;;44.25;40.75;;;19.00;99.90;;;;;;5053628;28;20036;-62
2023/08/27 00:18:16;;;;;;;43.80;40.33;;;18.30;99.90;;;;;;5055133;28;20130;-63
2023/08/27 00:20:45;;;;;;;44.58;40.78;;;17.50;99.90;;;;;;5051388;28;20029;-62
2023/08/27 00:23:11;;;;;;;42.75;39.30;;;17.60;99.90;;;;;;5052003;28;20033;-62
2023/08/27 00:25:37;;;;;;;44.08;40.40;;;18.60;99.90;;;;;;5051074;28;20049;-63
2023/08/27 00:28:03;;;;;;;44.53;40.85;;;18.80;99.90;;;;;;5055089;28;20406;-63
2023/08/27 00:30:29;;;;;;;44.05;40.60;;;17.50;99.90;;;;;;5051284;28;20068;-62
2023/08/27 00:32:54;;;;;;;43.85;39.85;;;18.40;99.90;;;;;;5051400;28;20033;-63
2023/08/27 00:35:20;;;;;;;47.30;43.67;;;18.50;99.90;;;;;;5051257;28;20399;-63
2023/08/27 00:37:45;;;;;;;42.92;39.28;;;17.70;99.90;;;;;;5050767;28;20558;-63
2023/08/27 00:40:11;;;;;;;43.25;39.83;;;18.30;99.90;;;;;;5051094;28;20049;-62
2023/08/27 00:42:37;;;;;;;42.25;38.85;;;17.50;99.90;;;;;;5054871;28;20094;-63
2023/08/27 00:45:03;;;;;;;49.38;45.58;;;18.00;99.90;;;;;;5045470;28;20040;-62
2023/08/27 00:47:30;;;;;;;44.40;40.58;;;18.40;99.90;;;;;;5053647;28;20045;-63
2023/08/27 00:49:57;;;;;;;43.03;39.42;;;17.30;99.90;;;;;;5050904;28;20033;-62
2023/08/27 00:52:23;;;;;;;39.80;36.58;;;17.40;99.90;;;;;;5049251;28;20041;-62
2023/08/27 00:54:50;;;;;;;41.78;38.38;;;18.70;99.90;;;;;;5049366;28;20087;-63
2023/08/27 00:57:18;;;;;;;43.85;40.40;;;18.00;99.90;;;;;;5058116;28;20440;-62
2023/08/27 00:59:44;;;;;;;41.65;38.53;;;17.20;99.90;;;;;;5059690;28;20833;-63
2023/08/27 01:02:10;;;;;;;44.38;40.92;;;17.10;99.90;;;;;;5057677;28;20048;-62
2023/08/27 01:04:35;;;;;;;46.28;42.50;;;18.70;99.90;;;;;;5053174;28;20415;-63
2023/08/27 01:07:32;;;;;;;44.55;40.60;;;17.30;99.90;;;;;;5050281;28;20037;-63
2023/08/27 01:10:23;;;;;;;43.05;39.65;;;18.60;99.90;;;;;;5027038;28;20399;-62
2023/08/27 01:13:03;;;;;;;46.92;43.13;;;17.20;99.90;;;;;;5050076;28;20059;-63
2023/08/27 01:15:29;;;;;;;47.20;43.30;;;18.60;99.90;;;;;;5051222;28;20049;-63
2023/08/27 01:17:57;;;;;;;47.53;43.53;;;18.00;99.90;;;;;;5050710;28;20036;-62
2023/08/27 01:20:23;;;;;;;46.22;42.38;;;18.40;99.90;;;;;;5049655;28;20098;-63
2023/08/27 01:22:48;;;;;;;46.33;42.25;;;18.20;99.90;;;;;;5050233;28;20494;-62
2023/08/27 01:25:19;;;;;;;47.13;43.28;;;17.50;99.90;;;;;;5050253;28;20090;-62
2023/08/27 01:28:01;;;;;;;44.83;40.92;;;18.60;99.90;;;;;;5050170;28;20060;-62
2023/08/27 01:30:36;;;;;;;45.97;42.38;;;17.50;99.90;;;;;;5068094;28;20402;-62
2023/08/27 01:33:28;;;;;;;47.33;43.42;;;19.20;99.90;;;;;;5030893;28;20041;-61
2023/08/27 01:35:57;;;;;;;47.85;44.03;;;19.30;99.90;;;;;;5030956;28;20511;-61
2023/08/27 01:38:22;;;;;;;50.30;46.40;;;19.30;99.90;;;;;;5042496;28;20036;-61
2023/08/27 01:40:48;;;;;;;48.17;44.28;;;19.60;99.90;;;;;;5050179;28;20033;-61
2023/08/27 01:43:14;;;;;;;46.20;42.58;;;19.30;99.90;;;;;;5051112;28;20037;-61
2023/08/27 01:45:39;;;;;;;46.60;42.75;;;19.20;99.90;;;;;;5059329;28;20475;-61
2023/08/27 01:48:05;;;;;;;47.03;43.22;;;17.80;99.90;;;;;;5058162;28;20139;-62
2023/08/27 01:50:32;;;;;;;47.00;43.00;;;18.10;99.90;;;;;;5050172;28;20037;-61
2023/08/27 01:52:58;;;;;;;43.72;39.72;;;19.60;99.90;;;;;;5048700;28;20068;-62
2023/08/27 01:55:23;;;;;;;43.92;40.17;;;18.20;99.90;;;;;;5048638;28;20083;-62
2023/08/27 01:57:49;;;;;;;45.05;41.55;;;19.90;99.90;;;;;;5052516;28;20505;-61
2023/08/27 02:00:16;;;;;;;44.55;41.05;;;19.10;99.90;;;;;;5052945;28;20121;-62
2023/08/27 02:02:43;;;;;;;44.80;41.10;;;18.20;99.90;;;;;;5050001;28;20082;-61
2023/08/27 02:05:09;;;;;;;43.75;39.95;;;19.30;99.90;;;;;;5049673;28;20490;-62
2023/08/27 02:07:39;;;;;;;44.20;40.50;;;18.80;99.90;;;;;;5052744;28;20177;-62
2023/08/27 02:10:06;;;;;;;47.42;43.40;;;17.80;99.90;;;;;;5048734;28;20045;-61
2023/08/27 02:12:32;;;;;;;45.78;41.60;;;19.10;99.90;;;;;;5049446;28;20580;-61
2023/08/27 02:14:57;;;;;;;44.47;40.78;;;18.90;99.90;;;;;;5055425;28;20071;-61
2023/08/27 02:17:23;;;;;;;43.17;39.40;;;18.40;99.90;;;;;;5055899;28;20171;-61
2023/08/27 02:19:48;;;;;;;46.03;42.38;;;17.80;99.90;;;;;;5049714;28;20446;-61
2023/08/27 02:22:14;;;;;;;44.80;40.88;;;18.60;99.90;;;;;;5062210;28;20440;-61
2023/08/27 02:24:40;;;;;;;44.10;40.28;;;19.50;99.90;;;;;;5055873;28;20121;-62
2023/08/27 02:27:05;;;;;;;42.80;39.13;;;17.70;99.90;;;;;;5046151;28;20509;-61
2023/08/27 02:29:32;;;;;;;45.17;41.55;;;17.70;99.90;;;;;;5049485;28;20446;-62
2023/08/27 02:31:57;;;;;;;45.30;41.60;;;17.80;99.90;;;;;;5050689;28;20391;-61
2023/08/27 02:34:23;;;;;;;43.63;40.13;;;19.50;99.90;;;;;;5053431;28;20139;-61
2023/08/27 02:36:48;;;;;;;44.95;41.40;;;18.70;99.90;;;;;;5053585;28;20095;-62
2023/08/27 02:39:14;;;;;;;46.03;42.20;;;17.90;99.90;;;;;;5061127;28;20078;-62
2023/08/27 02:41:40;;;;;;;45.35;41.72;;;18.50;99.90;;;;;;5053093;28;20045;-63
2023/08/27 02:44:06;;;;;;;42.83;39.28;;;19.30;99.90;;;;;;5056176;28;20133;-62
2023/08/27 02:46:31;;;;;;;42.85;39.28;;;18.90;99.90;;;;;;5062036;28;20471;-62
2023/08/27 02:48:57;;;;;;;43.17;39.58;;;17.80;99.90;;;;;;5053349;28;20511;-62
2023/08/27 02:51:22;;;;;;;44.92;41.35;;;18.50;99.90;;;;;;5052900;28;20471;-63
2023/08/27 02:53:51;;;;;;;45.85;42.22;;;18.50;99.90;;;;;;5056225;28;20029;-62
2023/08/27 02:56:17;;;;;;;46.58;42.75;;;17.60;99.90;;;;;;5055689;28;20041;-62
2023/08/27 02:58:43;;;;;;;45.08;41.50;;;19.50;99.90;;;;;;5053078;28;20556;-62
2023/08/27 03:01:09;;;;;;;46.30;42.13;;;19.10;99.90;;;;;;5049484;28;20571;-63
2023/08/27 03:03:35;;;;;;;48.30;43.78;;;17.70;99.90;;;;;;5052861;28;20045;-63
2023/08/27 03:06:01;;;;;;;45.30;41.72;;;19.30;99.90;;;;;;5052781;28;20112;-62
2023/08/27 03:08:26;;;;;;;44.08;40.42;;;17.90;99.90;;;;;;5052771;28;20041;-63
2023/08/27 03:10:52;;;;;;;43.72;40.03;;;18.50;99.90;;;;;;5057690;28;20431;-63
2023/08/27 03:13:17;;;;;;;45.80;41.92;;;19.60;99.90;;;;;;5051311;28;20055;-63
2023/08/27 03:15:43;;;;;;;46.22;42.28;;;18.30;99.90;;;;;;5060016;28;20047;-62
2023/08/27 03:18:10;;;;;;;47.10;43.00;;;19.50;99.90;;;;;;5052902;28;20033;-62
2023/08/27 03:20:35;;;;;;;48.50;44.50;;;19.30;99.90;;;;;;5043327;28;20073;-63
2023/08/27 03:23:01;;;;;;;47.22;42.97;;;20.10;99.90;;;;;;5034613;28;20505;-62
2023/08/27 03:25:27;;;;;;;46.28;41.17;;;20.10;99.90;;;;;;5050335;28;20530;-63
2023/08/27 03:27:52;;;;;;;44.22;40.08;;;18.50;99.90;;;;;;5052297;28;20069;-63
2023/08/27 03:30:18;;;;;;;42.83;38.85;;;18.50;99.90;;;;;;5058239;28;20041;-62
2023/08/27 03:32:43;;;;;;;44.38;40.50;;;18.60;99.90;;;;;;5052555;28;20049;-63
2023/08/27 03:35:09;;;;;;;44.63;40.63;;;20.20;99.90;;;;;;5051716;28;20552;-62
2023/08/27 03:37:34;;;;;;;42.55;38.65;;;18.80;99.90;;;;;;5052010;28;20033;-63
2023/08/27 03:40:01;;;;;;;41.75;38.08;;;18.40;99.90;;;;;;5054287;28;20036;-62
2023/08/27 03:42:26;;;;;;;43.33;39.55;;;19.30;99.90;;;;;;5048904;28;20045;-63
2023/08/27 03:44:52;;;;;;;42.67;38.90;;;18.50;99.90;;;;;;5051152;28;20101;-62
2023/08/27 03:47:18;;;;;;;43.50;39.50;;;18.40;99.90;;;;;;5053050;28;20037;-63
2023/08/27 03:49:43;;;;;;;41.75;37.85;;;20.50;99.90;;;;;;5052142;28;20045;-62
2023/08/27 03:52:09;;;;;;;42.15;38.45;;;20.00;99.90;;;;;;5050849;28;20049;-63
2023/08/27 03:54:34;;;;;;;42.25;38.47;;;19.70;99.90;;;;;;5056262;28;20036;-63
2023/08/27 03:57:00;;;;;;;42.92;39.13;;;20.50;99.90;;;;;;5056150;28;20036;-62
2023/08/27 03:59:25;;;;;;;43.63;39.58;;;18.50;99.90;;;;;;5056509;28;20048;-62
2023/08/27 04:01:52;;;;;;;42.92;38.90;;;18.80;99.90;;;;;;5055145;28;20052;-63
2023/08/27 04:04:18;;;;;;;41.55;38.08;;;18.40;99.90;;;;;;5052144;28;20120;-63
2023/08/27 04:06:43;;;;;;;42.60;38.75;;;19.20;99.90;;;;;;5051476;28;20139;-63
2023/08/27 04:09:09;;;;;;;43.13;39.35;;;20.50;99.90;;;;;;5045024;28;20033;-62
2023/08/27 04:11:35;;;;;;;43.78;40.08;;;18.30;99.90;;;;;;5051346;28;20041;-63
2023/08/27 04:14:00;;;;;;;41.22;37.67;;;20.60;99.90;;;;;;5058087;28;20044;-63
2023/08/27 04:16:26;;;;;;;43.03;39.33;;;19.10;99.90;;;;;;5051693;28;20052;-63
2023/08/27 04:18:51;;;;;;;44.22;40.05;;;18.50;99.90;;;;;;5051542;28;20029;-63
2023/08/27 04:21:17;;;;;;;43.75;39.10;;;20.10;99.90;;;;;;5051404;28;20037;-63
2023/08/27 04:23:42;;;;;;;44.30;40.00;;;18.60;99.90;;;;;;5058175;28;20047;-63
2023/08/27 04:26:08;;;;;;;42.80;39.10;;;20.50;99.90;;;;;;5049256;28;20399;-63
2023/08/27 04:28:33;;;;;;;42.03;38.17;;;20.60;99.90;;;;;;5047521;28;20570;-63
2023/08/27 04:30:59;;;;;;;43.67;39.78;;;19.10;99.90;;;;;;5050571;28;20036;-63
2023/08/27 04:33:25;;;;;;;42.80;39.00;;;19.20;99.90;;;;;;5051537;28;20083;-63
2023/08/27 04:35:53;;;;;;;44.05;40.05;;;18.60;99.90;;;;;;5042772;28;20056;-63
2023/08/27 04:38:22;;;;;;;44.13;40.03;;;20.40;99.90;;;;;;5044803;28;20132;-63
2023/08/27 04:40:53;;;;;;;44.47;40.58;;;18.50;99.90;;;;;;5046860;28;20040;-63
2023/08/27 04:43:19;;;;;;;42.85;39.15;;;20.60;99.90;;;;;;5054275;28;20033;-62
2023/08/27 04:45:45;;;;;;;43.13;39.22;;;18.60;99.90;;;;;;5056363;28;20379;-63
2023/08/27 04:48:11;;;;;;;44.40;40.53;;;18.70;99.90;;;;;;5054718;28;20166;-63
2023/08/27 04:50:37;;;;;;;44.90;41.20;;;19.70;99.90;;;;;;5051201;28;20037;-63
2023/08/27 04:53:03;;;;;;;44.20;40.25;;;18.70;99.90;;;;;;5054526;28;20091;-63
2023/08/27 04:55:30;;;;;;;44.03;40.30;;;18.60;99.90;;;;;;5050717;28;20037;-62
2023/08/27 04:57:55;;;;;;;44.55;40.83;;;18.50;99.90;;;;;;5050097;28;20036;-63
2023/08/27 05:00:21;;;;;;;44.70;40.75;;;20.60;99.90;;;;;;5050964;28;20049;-63
2023/08/27 05:02:48;;;;;;;47.33;43.13;;;20.50;99.90;;;;;;5057889;28;20033;-62
2023/08/27 05:05:14;;;;;;;45.67;41.72;;;20.10;99.90;;;;;;5050907;28;20044;-63
2023/08/27 05:07:39;;;;;;;45.60;41.45;;;18.60;99.90;;;;;;5056575;28;20123;-63
2023/08/27 05:10:05;;;;;;;45.00;40.80;;;18.80;99.90;;;;;;5050511;28;20045;-62
2023/08/27 05:12:31;;;;;;;43.78;39.97;;;19.90;99.90;;;;;;5050699;28;20037;-63
2023/08/27 05:14:56;;;;;;;44.35;40.45;;;18.50;99.90;;;;;;5049605;28;20056;-63
2023/08/27 05:17:23;;;;;;;43.58;39.42;;;20.10;99.90;;;;;;5051090;28;20418;-63
2023/08/27 05:19:49;;;;;;;46.75;41.58;;;20.60;99.90;;;;;;5052404;28;20041;-63
2023/08/27 05:22:14;;;;;;;45.38;41.47;;;18.60;99.90;;;;;;5059282;28;20037;-62
2023/08/27 05:24:40;;;;;;;46.58;42.40;;;20.10;99.90;;;;;;5050557;28;20175;-63
2023/08/27 05:27:06;;;;;;;45.75;41.65;;;20.60;99.90;;;;;;5050208;28;20068;-63
2023/08/27 05:29:31;;;;;;;47.70;42.88;;;19.70;99.90;;;;;;5050595;28;20062;-63
2023/08/27 05:31:57;;;;;;;47.33;43.22;;;18.80;99.90;;;;;;5049150;28;20076;-62
2023/08/27 05:34:25;;;;;;;44.85;40.80;;;18.70;99.90;;;;;;5084795;28;20068;-62
2023/08/27 05:36:51;;;;;;;48.33;43.72;;;20.70;99.90;;;;;;5053004;28;20039;-63
2023/08/27 05:39:16;;;;;;;48.78;44.15;;;20.30;99.90;;;;;;5050264;28;20414;-62
2023/08/27 05:41:42;;;;;;;48.42;44.13;;;19.20;99.90;;;;;;5050308;28;20472;-62
2023/08/27 05:44:07;;;;;;;48.25;43.55;;;19.10;99.90;;;;;;5054857;28;20029;-63
2023/08/27 05:46:33;;;;;;;47.95;43.55;;;20.60;99.90;;;;;;5081914;28;20049;-63
2023/08/27 05:49:00;;;;;;;48.88;44.45;;;20.40;99.90;;;;;;5056601;28;20406;-62
2023/08/27 05:51:25;;;;;;;49.40;44.50;;;19.20;99.90;;;;;;5053956;28;20460;-63
2023/08/27 05:53:51;;;;;;;49.13;44.63;;;19.10;99.90;;;;;;5048519;28;20037;-63
2023/08/27 05:56:16;;;;;;;49.70;45.20;;;20.80;99.90;;;;;;5049836;28;20485;-63
2023/08/27 05:58:42;;;;;;;52.53;47.80;;;20.60;99.90;;;;;;5050253;28;20513;-63
2023/08/27 06:01:08;;;;;;;52.30;47.33;;;19.00;99.90;;;;;;5049878;28;20396;-63
2023/08/27 06:03:33;;;;;;;53.03;47.85;;;19.90;99.90;;;;;;5050787;28;20045;-63
2023/08/27 06:05:59;;;;;;;51.72;47.05;;;19.10;99.90;;;;;;5052355;28;20040;-63
2023/08/27 06:08:24;;;;;;;51.85;47.03;;;20.80;99.90;;;;;;5056347;28;20071;-65
2023/08/27 06:10:50;;;;;;;51.80;47.00;;;20.10;99.90;;;;;;5050834;28;20036;-64
2023/08/27 06:13:15;;;;;;;52.65;47.50;;;19.70;99.90;;;;;;5052669;28;20045;-63
2023/08/27 06:15:41;;;;;;;52.80;47.85;;;19.50;99.90;;;;;;5049556;28;20064;-63
2023/08/27 06:18:07;;;;;;;54.17;49.08;;;20.70;99.90;;;;;;5055001;28;20065;-64
2023/08/27 06:20:33;;;;;;;52.83;47.95;;;20.30;99.90;;;;;;5051423;28;20452;-63
2023/08/27 06:23:00;;;;;;;51.85;46.88;;;20.90;99.90;;;;;;5050967;28;20464;-64
2023/08/27 06:25:26;;;;;;;52.95;48.17;;;19.40;99.90;;;;;;5052081;28;20045;-64
2023/08/27 06:27:57;;;;;;;51.88;47.17;;;19.50;99.90;;;;;;5048449;28;20048;-63
2023/08/27 06:30:25;;;;;;;51.17;46.50;;;19.60;99.90;;;;;;5048654;28;20091;-63
2023/08/27 06:32:51;;;;;;;49.90;45.25;;;19.50;99.90;;;;;;5053887;28;20106;-64
2023/08/27 06:35:16;;;;;;;51.28;46.58;;;21.30;99.90;;;;;;5049489;28;20458;-63
2023/08/27 06:37:42;;;;;;;51.25;46.35;;;21.10;99.90;;;;;;5054300;28;20041;-63
2023/08/27 06:40:08;;;;;;;50.35;45.70;;;19.80;99.90;;;;;;5046435;28;20423;-64
2023/08/27 06:42:34;;;;;;;49.30;44.58;;;20.10;99.90;;;;;;5048457;28;20127;-63
2023/08/27 06:45:00;;;;;;;50.30;45.58;;;21.40;99.90;;;;;;5049054;28;20123;-64
2023/08/27 06:47:26;;;;;;;50.03;45.42;;;21.40;99.90;;;;;;5057653;28;20044;-63
2023/08/27 06:49:51;;;;;;;49.03;44.53;;;20.30;99.90;;;;;;5048657;28;20553;-64
2023/08/27 06:52:20;;;;;;;50.67;46.05;;;20.20;99.90;;;;;;5042311;28;20045;-63
2023/08/27 06:54:46;;;;;;;48.90;44.35;;;20.40;99.90;;;;;;5037304;28;20495;-63
2023/08/27 06:57:11;;;;;;;46.70;42.40;;;21.60;99.90;;;;;;5043941;28;20045;-63
2023/08/27 06:59:37;;;;;;;48.33;43.72;;;21.00;99.90;;;;;;5041230;28;20045;-64
2023/08/27 07:02:03;;;;;;;47.88;43.38;;;20.00;99.90;;;;;;5038347;28;20115;-63
2023/08/27 07:04:29;;;;;;;37.85;34.55;;;20.00;99.90;;;;;;5047897;28;20080;-63
2023/08/27 07:06:54;;;;;;;35.78;32.88;;;20.40;99.90;;;;;;5047999;28;20108;-64
2023/08/27 07:09:22;;;;;;;31.65;28.95;;;20.90;99.90;;;;;;5048875;28;20403;-63
2023/08/27 07:11:48;;;;;;;32.25;29.60;;;20.70;99.90;;;;;;5034385;28;20046;-63
2023/08/27 07:14:13;;;;;;;30.88;28.27;;;20.40;99.90;;;;;;5039322;28;20041;-63
2023/08/27 07:16:39;;;;;;;29.83;27.23;;;21.50;99.90;;;;;;5039138;28;20075;-63
2023/08/27 07:19:04;;;;;;;29.67;27.17;;;20.70;99.90;;;;;;5044524;28;20510;-65
2023/08/27 07:21:30;;;;;;;23.40;21.40;;;20.80;99.90;;;;;;5040228;28;20041;-64
2023/08/27 07:23:55;;;;;;;22.70;20.92;;;21.10;99.90;;;;;;5051589;28;20072;-64
2023/08/27 07:26:22;;;;;;;22.63;20.83;;;21.10;99.90;;;;;;5046795;28;20094;-63
2023/08/27 07:28:47;;;;;;;26.20;24.10;;;21.10;99.90;;;;;;5037204;28;20116;-64
2023/08/27 07:31:13;;;;;;;27.70;25.25;;;21.00;99.90;;;;;;5052508;28;20131;-64
2023/08/27 07:33:39;;;;;;;27.75;25.25;;;21.10;99.90;;;;;;5049828;28;20432;-64
2023/08/27 07:36:04;;;;;;;23.40;21.60;;;20.80;99.90;;;;;;5052222;28;20048;-64
2023/08/27 07:38:30;;;;;;;22.08;20.48;;;21.20;99.90;;;;;;5059148;28;20037;-64
2023/08/27 07:40:55;;;;;;;21.08;19.48;;;21.00;99.90;;;;;;5050149;28;20045;-64
2023/08/27 07:43:21;;;;;;;17.75;16.48;;;21.30;99.90;;;;;;5047463;28;20060;-64
2023/08/27 07:45:47;;;;;;;19.85;18.45;;;21.20;99.90;;;;;;5048648;28;20095;-64
2023/08/27 07:48:13;;;;;;;17.92;16.33;;;21.40;99.90;;;;;;5050791;28;20037;-64
2023/08/27 07:50:39;;;;;;;14.77;13.77;;;21.40;99.90;;;;;;5057754;28;20170;-64
2023/08/27 07:53:04;;;;;;;16.33;15.13;;;21.80;99.90;;;;;;5051175;28;20037;-64
2023/08/27 07:55:31;;;;;;;13.02;12.13;;;22.30;99.90;;;;;;5048986;28;20032;-64
2023/08/27 07:57:58;;;;;;;14.30;13.23;;;22.60;99.90;;;;;;5048938;28;20394;-65
2023/08/27 08:00:24;;;;;;;13.63;12.65;;;22.80;99.90;;;;;;5093610;28;20114;-66
2023/08/27 08:02:49;;;;;;;11.20;10.40;;;23.10;99.90;;;;;;5046347;28;20151;-65
2023/08/27 08:05:15;;;;;;;11.52;10.73;;;23.30;99.90;;;;;;5053651;28;20553;-65
2023/08/27 08:07:42;;;;;;;12.15;11.25;;;23.50;99.90;;;;;;5050300;28;20380;-65
2023/08/27 08:10:08;;;;;;;14.00;13.00;;;23.70;1.00;;;;;;5049040;28;20043;-65
2023/08/27 08:12:33;;;;;;;10.80;10.05;;;23.80;99.90;;;;;;5082940;28;20380;-65
2023/08/27 08:14:59;;;;;;;10.55;9.75;;;24.00;99.90;;;;;;5050655;28;20517;-65
2023/08/27 08:17:24;;;;;;;10.90;10.18;;;24.10;1.00;;;;;;5053080;28;20033;-65
2023/08/27 08:19:51;;;;;;;14.02;13.13;;;24.20;99.90;;;;;;5050536;28;20067;-65
2023/08/27 08:22:17;;;;;;;16.45;15.35;;;24.40;1.00;;;;;;5050574;28;20048;-65
2023/08/27 08:24:43;;;;;;;13.10;12.10;;;24.40;99.90;;;;;;5050746;28;20074;-65
2023/08/27 08:27:08;;;;;;;14.20;13.23;;;24.60;1.00;;;;;;5041966;28;20037;-65
2023/08/27 08:29:34;;;;;;;11.35;10.55;;;24.60;99.90;;;;;;5057065;28;20051;-64
2023/08/27 08:32:00;;;;;;;13.43;12.43;;;24.90;99.90;;;;;;5049416;28;20533;-66
2023/08/27 08:34:28;;;;;;;11.32;10.52;;;25.10;99.90;;;;;;5061386;28;20807;-65
2023/08/27 08:36:54;;;;;;;10.70;10.00;;;25.30;15.40;;;;;;5045149;28;20075;-65
2023/08/27 08:39:20;;;;;;;11.80;11.00;;;24.90;1.00;;;;;;5047567;28;20086;-65
2023/08/27 08:41:59;;;;;;;11.00;10.20;;;24.90;99.90;;;;;;5048780;28;20037;-65
2023/08/27 08:44:36;;;;;;;10.65;9.95;;;25.00;99.90;;;;;;5044085;28;20470;-65
2023/08/27 08:47:03;;;;;;;9.80;9.10;;;25.20;99.90;;;;;;5045640;28;20098;-65
2023/08/27 08:49:32;;;;;;;7.90;7.32;;;25.20;99.90;;;;;;5046509;28;20111;-65
2023/08/27 08:52:05;;;;;;;9.27;8.57;;;24.90;68.80;;;;;;5049823;28;20055;-65
2023/08/27 08:54:30;;;;;;;9.55;8.95;;;24.80;24.10;;;;;;5047645;28;20095;-65
2023/08/27 08:57:00;;;;;;;9.13;8.52;;;24.90;46.30;;;;;;5045249;28;20033;-65
2023/08/27 08:59:28;;;;;;;9.63;9.00;;;24.90;27.30;;;;;;5049600;28;20072;-65
2023/08/27 09:01:54;;;;;;;9.13;8.52;;;25.10;40.30;;;;;;5048382;28;20123;-67
2023/08/27 09:04:22;;;;;;;14.05;12.82;;;25.20;20.40;;;;;;5041574;28;20048;-66
2023/08/27 09:06:49;;;;;;;12.13;11.23;;;25.30;60.70;;;;;;5040841;28;20045;-64
2023/08/27 09:09:16;;;;;;;16.73;15.57;;;25.00;1.00;;;;;;5042659;28;20072;-65
2023/08/27 09:11:43;;;;;;;10.63;9.85;;;25.00;54.30;;;;;;5051576;28;20048;-64
2023/08/27 09:14:10;;;;;;;9.65;8.95;;;25.10;99.00;;;;;;5047379;28;20037;-65
2023/08/27 09:16:35;;;;;;;13.68;12.68;;;25.80;93.40;;;;;;5046386;28;20037;-65
2023/08/27 09:19:01;;;;;;;11.82;11.02;;;25.60;99.90;;;;;;5047883;28;20041;-65
2023/08/27 09:21:27;;;;;;;12.68;11.68;;;26.00;95.40;;;;;;5047430;28;20044;-65
2023/08/27 09:23:54;;;;;;;10.43;9.63;;;26.40;99.90;;;;;;5050502;28;20036;-65
2023/08/27 09:26:20;;;;;;;12.20;11.30;;;26.50;3.40;;;;;;5052154;28;20047;-65
2023/08/27 09:28:46;;;;;;;7.07;6.57;;;26.00;1.00;;;;;;5058935;28;20461;-65
2023/08/27 09:31:12;;;;;;;8.60;8.00;;;25.70;1.00;;;;;;5049449;28;20044;-65
2023/08/27 09:33:42;;;;;;;8.63;7.88;;;25.80;1.00;;;;;;5049554;28;20094;-65
2023/08/27 09:36:08;;;;;;;12.13;8.98;;;25.90;1.00;;;;;;5048739;28;20403;-65
2023/08/27 09:38:34;;;;;;;10.00;9.20;;;25.90;1.00;;;;;;5050029;28;20053;-65
2023/08/27 09:41:14;;;;;;;8.75;8.02;;;25.90;1.00;;;;;;5052725;28;20120;-63
2023/08/27 09:43:39;;;;;;;8.85;8.25;;;25.90;1.00;;;;;;5049293;28;20044;-64
2023/08/27 09:46:16;;;;;;;6.25;5.82;;;26.10;1.00;;;;;;5048410;28;20033;-63
2023/08/27 09:48:42;;;;;;;6.10;5.70;;;26.20;1.00;;;;;;5049835;28;20045;-63
2023/08/27 09:51:09;;;;;;;6.50;6.00;;;26.40;99.90;;;;;;5046596;28;20130;-62
2023/08/27 09:53:35;;;;;;;6.50;6.00;;;26.50;1.00;;;;;;5049167;28;20044;-63
2023/08/27 09:56:03;;;;;;;6.90;6.40;;;26.50;99.90;;;;;;5042353;28;20029;-63
2023/08/27 09:58:29;;;;;;;11.02;10.23;;;26.40;99.90;;;;;;5046936;28;20407;-64
2023/08/27 10:00:59;;;;;;;34.78;32.03;;;26.70;99.90;;;;;;5044524;28;20050;-64
2023/08/27 10:03:25;;;;;;;45.55;42.05;;;26.60;99.90;;;;;;5045302;28;20044;-65
2023/08/27 10:05:51;;;;;;;48.90;45.08;;;26.30;99.90;;;;;;5047722;28;20048;-63
2023/08/27 10:08:17;;;;;;;62.25;57.60;;;26.10;99.90;;;;;;5040204;28;20491;-63
2023/08/27 10:10:42;;;;;;;81.22;75.13;;;26.00;99.90;;;;;;5039526;28;20558;-64
2023/08/27 10:13:10;;;;;;;79.95;73.70;;;26.10;99.90;;;;;;5041432;28;20045;-63
2023/08/27 10:15:36;;;;;;;109.10;100.43;;;25.80;99.90;;;;;;5044828;28;20033;-65
2023/08/27 10:18:04;;;;;;;125.78;115.60;;;25.50;99.90;;;;;;5044600;28;20040;-64
2023/08/27 10:20:31;;;;;;;137.00;125.85;;;25.00;99.90;;;;;;5041262;28;20080;-64
2023/08/27 10:22:57;;;;;;;100.45;92.97;;;24.50;99.90;;;;;;5048712;28;20033;-62
2023/08/27 10:25:24;;;;;;;145.50;133.75;;;24.10;99.90;;;;;;5045075;28;20043;-64
2023/08/27 10:27:51;;;;;;;143.60;131.57;;;24.20;99.90;;;;;;5038560;28;20037;-63
2023/08/27 10:30:18;;;;;;;196.15;176.52;;;23.50;99.90;;;;;;5043451;28;20080;-63
2023/08/27 10:32:44;;;;;;;158.95;142.85;;;23.20;99.90;;;;;;5039342;28;20120;-62
2023/08/27 10:35:10;;;;;;;136.23;121.60;;;22.80;1.00;;;;;;5057091;28;20132;-63
2023/08/27 10:37:39;;;;;;;128.32;114.82;;;22.60;1.00;;;;;;5047871;28;20098;-63
2023/08/27 10:40:09;;;;;;;112.13;99.75;;;22.40;1.00;;;;;;5045732;28;20728;-62
2023/08/27 10:42:36;;;;;;;81.75;68.45;;;22.10;12.70;;;;;;5046118;28;20036;-64
2023/08/27 10:45:17;;;;;;;67.68;55.45;;;22.00;99.90;;;;;;5049492;28;20033;-62
2023/08/27 10:48:06;;;;;;;52.15;45.15;;;21.90;99.90;;;;;;5049625;28;20521;-62
2023/08/27 10:50:49;;;;;;;55.05;47.15;;;21.90;99.90;;;;;;5052576;28;20112;-64
2023/08/27 10:53:19;;;;;;;54.25;47.28;;;21.80;1.00;;;;;;5048478;28;20045;-64
2023/08/27 10:55:52;;;;;;;47.22;42.25;;;21.70;1.00;;;;;;5046013;28;20120;-64
2023/08/27 10:58:23;;;;;;;51.15;45.53;;;21.60;16.30;;;;;;5058343;28;20036;-64
2023/08/27 11:01:06;;;;;;;46.05;40.95;;;21.60;99.90;;;;;;5049905;28;20056;-64
2023/08/27 11:03:50;;;;;;;45.90;41.08;;;21.80;99.90;;;;;;5047924;28;20041;-64
2023/08/27 11:06:16;;;;;;;40.67;36.63;;;21.50;99.90;;;;;;5051475;28;20506;-64
2023/08/27 11:08:41;;;;;;;39.70;35.30;;;21.50;99.90;;;;;;5047984;28;20043;-64
2023/08/27 11:11:11;;;;;;;40.05;35.67;;;21.40;99.90;;;;;;5043288;28;20095;-64
2023/08/27 11:13:39;;;;;;;40.80;36.67;;;21.50;99.90;;;;;;5048709;28;20127;-64
2023/08/27 11:16:12;;;;;;;40.78;36.50;;;21.30;99.90;;;;;;5047590;28;20168;-64
2023/08/27 11:18:47;;;;;;;38.30;34.55;;;21.40;99.90;;;;;;5043737;28;20087;-64
2023/08/27 11:21:25;;;;;;;38.55;34.75;;;21.40;99.90;;;;;;5032015;28;20092;-64
2023/08/27 11:24:26;;;;;;;39.90;35.90;;;21.30;99.90;;;;;;5047393;28;20037;-64
2023/08/27 11:26:53;;;;;;;38.10;34.50;;;21.40;99.90;;;;;;5042247;28;20041;-64
2023/08/27 11:29:23;;;;;;;39.47;35.53;;;21.40;99.90;;;;;;5049845;28;20077;-65
2023/08/27 11:31:49;;;;;;;35.38;32.03;;;21.40;1.00;;;;;;5049267;28;20129;-64
2023/08/27 11:34:15;;;;;;;35.58;32.17;;;21.50;1.00;;;;;;5046789;28;20120;-64
2023/08/27 11:36:45;;;;;;;33.13;30.33;;;21.50;1.00;;;;;;5052155;28;20457;-63
2023/08/27 11:39:15;;;;;;;32.33;29.67;;;21.60;1.00;;;;;;5047015;28;20561;-64
2023/08/27 11:41:45;;;;;;;31.73;29.20;;;21.90;36.10;;;;;;5053523;28;20036;-64
2023/08/27 11:44:11;;;;;;;24.33;22.52;;;22.10;99.90;;;;;;5040509;28;20048;-64
2023/08/27 11:46:38;;;;;;;28.83;26.63;;;22.10;1.00;;;;;;5051127;28;20124;-64
2023/08/27 11:49:05;;;;;;;31.90;28.98;;;22.40;99.90;;;;;;5049166;28;20047;-64
2023/08/27 11:51:31;;;;;;;33.05;30.25;;;22.00;99.90;;;;;;5079103;28;20525;-63
2023/08/27 11:53:58;;;;;;;33.60;30.70;;;22.10;99.90;;;;;;5044720;28;20036;-63
2023/08/27 11:56:24;;;;;;;33.80;30.77;;;22.30;99.90;;;;;;5042234;28;22046;-64
2023/08/27 11:58:54;;;;;;;31.63;28.92;;;22.40;99.90;;;;;;5055909;28;20119;-64
2023/08/27 12:01:20;;;;;;;29.42;26.73;;;22.50;99.90;;;;;;5057477;28;20049;-64
2023/08/27 12:03:48;;;;;;;32.00;29.17;;;22.60;99.90;;;;;;5048171;28;20045;-64
2023/08/27 12:06:17;;;;;;;33.00;30.10;;;22.70;99.90;;;;;;5045437;28;20665;-64
2023/08/27 12:08:46;;;;;;;36.00;32.60;;;22.60;99.90;;;;;;5052139;28;20099;-62
2023/08/27 12:11:12;;;;;;;35.65;32.17;;;22.60;99.90;;;;;;5039054;28;20068;-63
2023/08/27 12:13:39;;;;;;;36.15;32.72;;;22.50;99.90;;;;;;5048907;28;20440;-63
2023/08/27 12:16:05;;;;;;;37.45;34.05;;;23.00;99.90;;;;;;5060977;28;20044;-63
2023/08/27 12:18:34;;;;;;;36.20;32.60;;;22.60;99.90;;;;;;5051721;28;20043;-64
2023/08/27 12:21:07;;;;;;;37.72;34.08;;;22.60;99.90;;;;;;5044173;28;20037;-64
2023/08/27 12:23:33;;;;;;;38.42;34.92;;;22.50;99.90;;;;;;5042016;28;20578;-64
2023/08/27 12:26:02;;;;;;;35.28;32.17;;;22.60;99.90;;;;;;5036911;28;20041;-64
2023/08/27 12:28:27;;;;;;;37.45;34.15;;;22.90;99.90;;;;;;5053577;28;20041;-64